Time;durP1;ratioP1;P1;durP2;ratioP2;P2;SDS_P1;SDS_P2;PMS_P1;PMS_P2;Temp;Humidity;BMP_temperature;BMP_pressure;BME280_temperature;BME280_humidity;BME280_pressure;Samples;Min_cycle;Max_cycle;Signal;HPM_P1;HPM_P2
2022/08/07 00:04:21;;;;;;;0.88;0.85;;;;;;;20.24;53.68;97663.16;12714534;23;20459;-81
2022/08/07 00:09:41;;;;;;;0.82;0.80;;;;;;;20.23;53.64;97664.25;12735104;23;20017;-81
2022/08/07 00:15:00;;;;;;;0.88;0.82;;;;;;;20.23;53.79;97673.19;12735561;23;20322;-81
2022/08/07 00:20:19;;;;;;;1.23;0.68;;;;;;;20.22;53.77;97668.88;12693793;23;20033;-81
2022/08/07 00:25:39;;;;;;;1.02;0.80;;;;;;;20.22;53.76;97665.38;12735523;23;20376;-81
2022/08/07 00:31:03;;;;;;;1.10;0.90;;;;;;;20.23;53.70;97669.66;12714438;23;20018;-81
2022/08/07 00:36:23;;;;;;;2.30;0.90;;;;;;;20.22;53.76;97663.47;12714760;23;20348;-81
2022/08/07 00:41:48;;;;;;;1.00;0.90;;;;;;;20.22;53.75;97662.69;12714762;23;20048;-81
2022/08/07 00:47:07;;;;;;;0.80;0.80;;;;;;;20.21;53.71;97653.75;12760847;23;20017;-81
2022/08/07 00:52:27;;;;;;;1.55;0.90;;;;;;;20.21;53.68;97653.75;12718321;23;20021;-81
2022/08/07 00:57:46;;;;;;;0.90;0.90;;;;;;;20.21;53.83;97653.75;12738630;23;20014;-81
2022/08/07 01:03:05;;;;;;;0.75;0.75;;;;;;;20.21;53.68;97659.19;12738853;23;20044;-79
2022/08/07 01:08:25;;;;;;;0.82;0.82;;;;;;;20.21;53.83;97656.47;12697436;23;20017;-78
2022/08/07 01:13:44;;;;;;;1.30;0.90;;;;;;;20.20;53.79;97649.44;12717770;23;20024;-79
2022/08/07 01:19:05;;;;;;;0.98;0.88;;;;;;;20.20;53.84;97648.66;12738425;23;20382;-78
2022/08/07 01:24:25;;;;;;;0.82;0.82;;;;;;;20.20;53.68;97644.03;12717990;23;20022;-78
2022/08/07 01:29:44;;;;;;;0.85;0.85;;;;;;;20.20;53.80;97651.38;12737752;23;20076;-79
2022/08/07 01:35:05;;;;;;;0.95;0.90;;;;;;;20.19;53.83;97650.56;12760103;23;20021;-79
2022/08/07 01:40:26;;;;;;;1.13;0.80;;;;;;;20.19;53.68;97644.34;12737726;23;20033;-79
2022/08/07 01:45:53;;;;;;;1.02;0.93;;;;;;;20.18;53.69;97646.25;12738986;23;20361;-79
2022/08/07 01:51:18;;;;;;;0.70;0.70;;;;;;;20.19;53.73;97658.69;12717356;23;20021;-79
2022/08/07 01:56:47;;;;;;;1.05;0.90;;;;;;;20.18;53.69;97659.78;12716445;23;20013;-79
2022/08/07 02:02:10;;;;;;;0.90;0.80;;;;;;;20.17;53.70;97658.19;12737757;23;20326;-79
2022/08/07 02:07:34;;;;;;;0.90;0.80;;;;;;;20.18;53.53;97659.00;12737401;23;20353;-79
2022/08/07 02:12:56;;;;;;;0.70;0.70;;;;;;;20.18;53.67;97642.75;12737313;23;20028;-79
2022/08/07 02:18:21;;;;;;;0.80;0.80;;;;;;;20.17;53.58;97635.72;12738245;23;20021;-79
2022/08/07 02:23:40;;;;;;;0.80;0.80;;;;;;;20.16;53.55;97626.81;12736945;23;20040;-78
2022/08/07 02:29:03;;;;;;;0.88;0.82;;;;;;;20.16;53.53;97637.66;12716055;23;20013;-78
2022/08/07 02:34:23;;;;;;;0.70;0.70;;;;;;;20.15;53.47;97636.84;12716211;23;20017;-78
2022/08/07 02:39:47;;;;;;;1.55;1.25;;;;;;;20.17;53.26;97643.84;12696962;23;20401;-79
2022/08/07 02:45:12;;;;;;;1.35;0.95;;;;;;;20.14;53.45;97635.25;12737058;23;20397;-79
2022/08/07 02:50:33;;;;;;;0.90;0.73;;;;;;;20.13;53.53;97654.47;12715848;23;20453;-78
2022/08/07 02:55:55;;;;;;;0.73;0.70;;;;;;;20.14;53.65;97650.69;12716018;23;20021;-79
2022/08/07 03:01:16;;;;;;;2.00;1.00;;;;;;;20.12;53.44;97637.47;12736285;23;20017;-78
2022/08/07 03:06:36;;;;;;;0.75;0.70;;;;;;;20.14;53.56;97650.69;12735580;23;20024;-79
2022/08/07 03:11:56;;;;;;;0.80;0.80;;;;;;;20.14;53.45;97650.69;12715658;23;20405;-79
2022/08/07 03:17:15;;;;;;;1.05;0.95;;;;;;;20.13;53.58;97651.78;12715087;23;20021;-79
2022/08/07 03:22:37;;;;;;;0.80;0.80;;;;;;;20.12;53.48;97636.66;12756614;23;20014;-79
2022/08/07 03:27:58;;;;;;;1.50;0.90;;;;;;;20.11;53.52;97644.00;12736058;23;20033;-79
2022/08/07 03:33:18;;;;;;;0.68;0.68;;;;;;;20.12;53.45;97639.38;12735890;23;20021;-79
2022/08/07 03:38:38;;;;;;;1.17;0.82;;;;;;;20.11;53.39;97637.75;12736059;23;20013;-79
2022/08/07 03:43:59;;;;;;;0.75;0.75;;;;;;;20.11;53.45;97638.56;12735889;23;20025;-79
2022/08/07 03:49:23;;;;;;;1.60;1.00;;;;;;;20.09;53.43;97629.97;12736600;23;20020;-79
2022/08/07 03:54:43;;;;;;;0.82;0.70;;;;;;;20.11;53.39;97640.47;12757422;23;20071;-79
2022/08/07 04:00:05;;;;;;;1.10;1.00;;;;;;;20.11;53.35;97640.47;12735444;23;20021;-78
2022/08/07 04:05:35;;;;;;;0.95;0.80;;;;;;;20.10;53.29;97633.47;12757542;23;20353;-79
2022/08/07 04:10:55;;;;;;;1.13;0.90;;;;;;;20.08;53.30;97636.47;12735380;23;20080;-79
2022/08/07 04:16:15;;;;;;;0.90;0.90;;;;;;;20.10;53.31;97650.50;12735260;23;20024;-78
2022/08/07 04:21:35;;;;;;;0.80;0.80;;;;;;;20.11;52.88;97645.88;12739316;23;20441;-79
2022/08/07 04:26:56;;;;;;;1.10;0.80;;;;;;;20.15;52.63;97652.28;12739308;23;20476;-79
2022/08/07 04:32:17;;;;;;;0.80;0.80;;;;;;;20.18;52.17;97651.66;12739601;23;20021;-79
2022/08/07 04:37:37;;;;;;;2.25;1.00;;;;;;;19.68;49.43;97654.38;12736659;23;20019;-80
2022/08/07 04:42:58;;;;;;;2.28;0.85;;;;;;;19.66;48.71;97648.50;12718815;23;20013;-79
2022/08/07 04:48:20;;;;;;;1.00;0.90;;;;;;;19.43;48.15;97647.66;12717982;23;20021;-79
2022/08/07 04:53:52;;;;;;;1.17;1.00;;;;;;;-146.19;100.00;65364.44;12718193;23;20028;-79
2022/08/07 04:59:32;;;;;;;1.85;0.98;;;;;;;-146.19;100.00;65364.44;12718490;23;20013;-79
2022/08/07 05:05:02;;;;;;;1.45;1.00;;;;;;;19.43;48.15;97647.66;12718085;23;20121;-79
2022/08/07 05:10:28;;;;;;;1.75;1.10;;;;;;;19.03;50.43;97674.38;12718067;23;20386;-79
2022/08/07 05:15:50;;;;;;;3.15;0.80;;;;;;;19.10;50.50;97674.78;12738751;23;20017;-79
2022/08/07 05:21:11;;;;;;;1.10;0.90;;;;;;;19.33;51.17;97664.88;12697951;23;20041;-80
2022/08/07 05:26:33;;;;;;;1.10;0.70;;;;;;;19.51;51.40;97676.66;12738512;23;20071;-79
2022/08/07 05:31:58;;;;;;;1.80;1.00;;;;;;;19.64;51.55;97675.84;12739100;23;20021;-79
2022/08/07 05:37:23;;;;;;;1.17;0.80;;;;;;;19.71;51.86;97675.44;12740260;23;20014;-79
2022/08/07 05:42:51;;;;;;;1.10;0.82;;;;;;;19.53;48.22;97680.66;12719430;23;20021;-79
2022/08/07 05:48:12;;;;;;;2.10;0.80;;;;;;;19.38;49.41;97685.59;12738516;23;20022;-79
2022/08/07 05:53:35;;;;;;;2.67;0.73;;;;;;;19.27;48.12;97682.28;12719311;23;20021;-79
2022/08/07 05:58:56;;;;;;;1.48;0.90;;;;;;;19.21;47.97;97680.78;12738391;23;20512;-79
2022/08/07 06:04:18;;;;;;;2.50;0.90;;;;;;;19.22;47.97;97671.56;12738531;23;20013;-79
2022/08/07 06:09:39;;;;;;;1.10;0.65;;;;;;;19.20;47.72;97676.47;12717618;23;20009;-80
2022/08/07 06:14:59;;;;;;;1.05;0.80;;;;;;;19.23;48.04;97673.16;12738324;23;20017;-79
2022/08/07 06:20:19;;;;;;;2.47;1.00;;;;;;;19.29;48.79;97674.69;12696681;23;20398;-79
2022/08/07 06:25:40;;;;;;;2.50;0.80;;;;;;;19.34;49.14;97677.28;12717144;23;20013;-79
2022/08/07 06:30:59;;;;;;;2.15;0.80;;;;;;;19.34;48.89;97672.66;12736670;23;20021;-79
2022/08/07 06:36:20;;;;;;;1.50;0.80;;;;;;;19.36;48.71;97664.25;12717005;23;20013;-79
2022/08/07 06:42:18;;;;;;;3.10;0.70;;;;;;;19.33;48.46;97670.28;12718259;23;20017;-78
2022/08/07 06:48:01;;;;;;;1.70;1.00;;;;;;;19.27;49.04;97676.88;12721378;23;20014;-79
2022/08/07 06:53:28;;;;;;;1.85;0.80;;;;;;;19.29;49.23;97672.00;12736794;23;20467;-78
2022/08/07 06:58:48;;;;;;;3.10;0.88;;;;;;;19.40;49.85;97675.28;12716734;23;20021;-78
2022/08/07 07:04:09;;;;;;;1.60;0.80;;;;;;;19.47;50.38;97672.97;12759074;23;20024;-79
2022/08/07 07:09:30;;;;;;;0.93;0.85;;;;;;;19.53;50.61;97679.88;12717448;23;20024;-78
2022/08/07 07:15:04;;;;;;;0.70;0.70;;;;;;;19.56;50.97;97679.25;12696087;23;20532;-79
2022/08/07 07:20:34;;;;;;;0.80;0.60;;;;;;;19.59;50.86;97678.66;12736710;23;20096;-80
2022/08/07 07:25:58;;;;;;;1.23;0.70;;;;;;;19.61;51.15;97670.25;12737030;23;20013;-81
2022/08/07 07:31:24;;;;;;;3.55;1.10;;;;;;;19.59;49.71;97675.16;12736565;23;20021;-81
2022/08/07 07:36:44;;;;;;;2.00;0.68;;;;;;;19.57;49.50;97664.63;12736662;23;20067;-81
2022/08/07 07:42:05;;;;;;;4.10;0.90;;;;;;;19.55;49.38;97662.22;12715879;23;20017;-81
2022/08/07 07:47:25;;;;;;;3.50;0.93;;;;;;;19.56;49.76;97663.84;12716386;23;20036;-80
2022/08/07 07:52:45;;;;;;;1.10;0.95;;;;;;;19.57;50.17;97670.03;12716152;23;20017;-80
2022/08/07 07:58:05;;;;;;;1.13;0.70;;;;;;;19.59;50.30;97661.63;12736598;23;20052;-80
2022/08/07 08:03:25;;;;;;;2.40;0.70;;;;;;;19.61;49.95;97656.72;12715341;23;20021;-81
2022/08/07 08:08:45;;;;;;;1.75;1.00;;;;;;;19.62;50.26;97658.31;12736888;23;20445;-81
2022/08/07 08:14:04;;;;;;;2.30;0.80;;;;;;;19.63;50.01;97651.81;12737026;23;20069;-81
2022/08/07 08:19:27;;;;;;;2.78;0.90;;;;;;;19.65;49.96;97655.00;12735890;23;20017;-80
2022/08/07 08:30:26;;;;;;;1.00;0.70;;;;;;;19.62;48.35;97650.22;12718557;23;20052;-81
2022/08/07 08:35:48;;;;;;;1.25;0.85;;;;;;;19.62;48.32;97661.84;12735289;23;20020;-80
2022/08/07 08:41:16;;;;;;;0.70;0.70;;;;;;;19.63;48.68;97657.22;12714529;23;20022;-81
2022/08/07 08:46:53;;;;;;;2.38;0.65;;;;;;;19.63;48.73;97651.81;12714711;23;20017;-80
2022/08/07 08:52:28;;;;;;;1.25;0.70;;;;;;;19.64;48.62;97648.00;12735351;23;20026;-81
2022/08/07 08:58:02;;;;;;;0.82;0.80;;;;;;;19.65;49.02;97655.00;12755815;23;20017;-81
2022/08/07 09:03:57;;;;;;;0.88;0.60;;;;;;;19.65;47.35;97649.59;12714257;23;20564;-81
2022/08/07 09:09:23;;;;;;;1.75;1.00;;;;;;;19.66;47.42;97645.78;12738503;23;20040;-81
2022/08/07 09:15:04;;;;;;;1.38;0.70;;;;;;;19.66;47.87;97643.09;12717691;23;20465;-81
2022/08/07 09:20:33;;;;;;;1.13;0.60;;;;;;;19.67;47.08;97644.69;12738119;23;20028;-81
2022/08/07 09:26:15;;;;;;;0.50;0.50;;;;;;;19.66;47.37;97629.56;12698396;23;20029;-81
2022/08/07 09:31:47;;;;;;;2.63;0.75;;;;;;;19.68;48.14;97635.47;12738378;23;20017;-81
2022/08/07 09:37:14;;;;;;;2.60;0.80;;;;;;;19.69;48.77;97629.75;12717573;23;20017;-81
2022/08/07 09:42:56;;;;;;;2.47;0.70;;;;;;;19.69;49.10;97626.28;12760283;23;20024;-81
2022/08/07 09:48:34;;;;;;;1.35;0.75;;;;;;;19.69;49.04;97626.28;12738280;23;20036;-81
2022/08/07 09:53:57;;;;;;;2.77;0.80;;;;;;;19.70;48.92;97625.19;12717324;23;20021;-82
2022/08/07 09:59:50;;;;;;;1.05;0.50;;;;;;;19.69;48.18;97623.56;12736197;23;20028;-82
2022/08/07 10:05:16;;;;;;;0.80;0.60;;;;;;;19.70;48.67;97614.38;12759538;23;20017;-81
2022/08/07 10:11:04;;;;;;;1.70;0.60;;;;;;;19.70;48.28;97609.75;12716413;23;20024;-81
2022/08/07 10:16:33;;;;;;;1.40;0.63;;;;;;;19.69;48.03;97604.66;12716223;23;20092;-81
2022/08/07 10:22:27;;;;;;;1.75;0.68;;;;;;;19.71;48.21;97600.56;12716852;23;20017;-81
2022/08/07 10:28:25;;;;;;;1.27;0.55;;;;;;;19.70;47.65;97587.34;12716522;23;20080;-81
2022/08/07 10:34:02;;;;;;;0.90;0.40;;;;;;;19.70;48.03;97587.34;12757117;23;20084;-81
2022/08/07 10:39:56;;;;;;;0.60;0.60;;;;;;;19.70;47.95;97590.81;12716362;23;20468;-81
2022/08/07 10:45:34;;;;;;;1.05;0.40;;;;;;;19.70;48.30;97585.41;12757719;23;20018;-81
2022/08/07 10:50:59;;;;;;;0.80;0.57;;;;;;;19.72;48.50;97585.16;12758151;23;20044;-80
2022/08/07 10:56:29;;;;;;;0.50;0.50;;;;;;;19.72;48.32;97577.03;12716531;23;20497;-80
2022/08/07 11:01:49;;;;;;;2.05;0.60;;;;;;;19.71;48.36;97570.00;12737405;23;20074;-80
2022/08/07 11:07:25;;;;;;;0.52;0.50;;;;;;;19.71;48.63;97556.47;12736650;23;20017;-80
2022/08/07 11:12:59;;;;;;;1.15;0.60;;;;;;;19.72;49.08;97555.41;12716209;23;20021;-80
2022/08/07 11:18:25;;;;;;;0.75;0.60;;;;;;;19.73;49.28;97549.69;12736117;23;20029;-81
2022/08/07 11:23:48;;;;;;;0.95;0.60;;;;;;;19.73;49.43;97538.06;12736159;23;20014;-80
2022/08/07 11:29:40;;;;;;;0.95;0.60;;;;;;;19.73;49.30;97538.88;12715590;23;20017;-80
2022/08/07 11:35:06;;;;;;;0.80;0.60;;;;;;;19.74;49.62;97531.56;12735440;23;20022;-80
2022/08/07 11:40:35;;;;;;;1.42;0.50;;;;;;;19.75;49.74;97525.06;12714661;23;20445;-81
2022/08/07 11:46:18;;;;;;;1.92;0.65;;;;;;;19.76;49.43;97515.84;12735700;23;20013;-79
2022/08/07 11:51:58;;;;;;;1.30;0.70;;;;;;;19.78;48.96;97519.03;12717355;23;20018;-82
2022/08/07 11:57:31;;;;;;;1.25;0.80;;;;;;;19.80;48.01;97511.41;12737648;23;20020;-80
2022/08/07 12:03:24;;;;;;;2.10;0.55;;;;;;;19.82;48.61;97509.19;12737243;23;20025;-79
2022/08/07 12:08:52;;;;;;;1.77;0.50;;;;;;;19.82;49.03;97503.78;12716537;23;20135;-79
2022/08/07 12:14:17;;;;;;;0.67;0.63;;;;;;;19.82;49.16;97503.78;12735623;23;20017;-79
2022/08/07 12:19:58;;;;;;;1.75;0.70;;;;;;;19.81;49.05;97491.38;12735566;23;20025;-79
2022/08/07 12:25:52;;;;;;;4.30;0.60;;;;;;;19.81;49.22;97496.78;12715459;23;20068;-79
2022/08/07 12:31:18;;;;;;;3.17;0.60;;;;;;;19.82;49.31;97487.56;12697556;23;20018;-81
2022/08/07 12:36:40;;;;;;;0.75;0.70;;;;;;;19.82;49.44;97484.06;12735034;23;20018;-80
2022/08/07 12:42:00;;;;;;;1.08;0.70;;;;;;;19.84;49.09;97484.56;12740104;23;20040;-81
2022/08/07 12:47:34;;;;;;;1.80;0.50;;;;;;;19.84;49.41;97485.34;12739857;23;20025;-80
2022/08/07 12:53:17;;;;;;;0.63;0.52;;;;;;;19.86;49.29;97474.25;12719546;23;20512;-81
2022/08/07 12:58:41;;;;;;;0.70;0.60;;;;;;;19.87;49.45;97456.88;12679956;23;20450;-80
2022/08/07 13:04:39;;;;;;;2.92;0.60;;;;;;;19.87;49.39;97463.09;12718949;23;20341;-80
2022/08/07 13:10:35;;;;;;;1.40;0.47;;;;;;;19.87;49.46;97462.31;12739879;23;20020;-81
2022/08/07 13:16:01;;;;;;;2.47;0.50;;;;;;;19.87;49.64;97457.69;12738937;23;20351;-81
2022/08/07 13:21:28;;;;;;;1.15;0.50;;;;;;;19.88;49.39;97453.09;12740039;23;20014;-80
2022/08/07 13:27:05;;;;;;;0.40;0.40;;;;;;;19.90;48.98;97451.66;12739752;23;20021;-81
2022/08/07 13:32:33;;;;;;;0.88;0.45;;;;;;;19.91;49.23;97441.63;12761594;23;20072;-81
2022/08/07 13:37:58;;;;;;;1.95;0.47;;;;;;;19.91;49.26;97442.44;12718066;23;20024;-80
2022/08/07 13:43:19;;;;;;;1.65;0.50;;;;;;;19.91;49.37;97426.22;12718342;23;20018;-80
2022/08/07 13:48:39;;;;;;;2.15;0.60;;;;;;;19.92;49.04;97437.84;12738902;23;20024;-81
2022/08/07 13:54:09;;;;;;;0.80;0.45;;;;;;;19.94;48.55;97424.81;12717778;23;20032;-81
2022/08/07 13:59:30;;;;;;;2.83;0.60;;;;;;;19.94;48.41;97412.06;12758615;23;20382;-80
2022/08/07 14:04:53;;;;;;;2.20;0.50;;;;;;;19.96;48.02;97409.06;12738834;23;20025;-81
2022/08/07 14:10:13;;;;;;;0.75;0.50;;;;;;;19.98;47.75;97408.75;12738522;23;20013;-82
2022/08/07 14:15:41;;;;;;;0.95;0.52;;;;;;;20.00;48.21;97406.53;12737721;23;20441;-84
2022/08/07 14:21:11;;;;;;;0.50;0.50;;;;;;;19.99;48.18;97399.53;12737241;23;20021;-83
2022/08/07 14:26:38;;;;;;;1.85;0.50;;;;;;;19.99;48.46;97399.53;12759337;23;20013;-78
2022/08/07 14:32:01;;;;;;;1.38;0.63;;;;;;;19.99;48.76;97396.81;12737368;23;20468;-79
2022/08/07 14:37:20;;;;;;;2.15;0.70;;;;;;;19.99;48.55;97399.53;12737130;23;20022;-79
2022/08/07 14:42:40;;;;;;;1.00;0.50;;;;;;;20.00;48.44;97393.00;12716123;23;20013;-78
2022/08/07 14:48:01;;;;;;;5.43;0.52;;;;;;;20.00;48.51;97393.81;12716788;23;20345;-80
2022/08/07 14:53:23;;;;;;;0.82;0.68;;;;;;;20.02;48.19;97390.78;12716079;23;20049;-82
2022/08/07 14:58:47;;;;;;;0.68;0.50;;;;;;;20.03;48.47;97389.66;12736647;23;20017;-80
2022/08/07 15:04:08;;;;;;;1.95;0.63;;;;;;;20.03;48.24;97385.09;12736740;23;20025;-82
2022/08/07 15:09:31;;;;;;;0.40;0.35;;;;;;;20.07;48.00;97387.94;12736773;23;20014;-81
2022/08/07 15:15:02;;;;;;;1.90;0.50;;;;;;;20.09;47.87;97385.72;12737512;23;20017;-82
2022/08/07 15:20:25;;;;;;;0.68;0.40;;;;;;;20.09;47.93;97374.88;12696815;23;20022;-80
2022/08/07 15:25:50;;;;;;;0.82;0.50;;;;;;;20.09;47.73;97372.19;12696076;23;20014;-81
2022/08/07 15:31:13;;;;;;;0.85;0.60;;;;;;;20.13;47.37;97375.84;12674374;23;20057;-81
2022/08/07 15:36:34;;;;;;;0.60;0.50;;;;;;;20.14;47.33;97362.03;12766729;23;20080;-62
2022/08/07 15:42:01;;;;;;;1.70;0.50;;;;;;;20.19;47.32;97379.22;12817886;23;20043;-60
2022/08/07 15:47:21;;;;;;;0.57;0.45;;;;;;;20.19;47.21;97368.41;12799480;23;20025;-59
2022/08/07 15:52:41;;;;;;;1.65;0.40;;;;;;;20.20;47.55;97365.38;12818959;23;20028;-61
2022/08/07 15:58:02;;;;;;;0.82;0.50;;;;;;;20.19;48.03;97363.00;12799028;23;20021;-59
2022/08/07 16:03:23;;;;;;;1.67;0.50;;;;;;;20.15;48.69;97360.94;12818280;23;20018;-61
2022/08/07 16:08:45;;;;;;;0.85;0.50;;;;;;;20.14;49.00;97353.91;12818932;23;20021;-61
2022/08/07 16:14:19;;;;;;;0.57;0.45;;;;;;;20.14;49.53;97353.13;12818762;23;20075;-63
2022/08/07 16:19:56;;;;;;;1.33;0.60;;;;;;;20.13;49.22;97348.81;12797950;23;20032;-61
2022/08/07 16:25:30;;;;;;;1.20;0.57;;;;;;;20.12;47.61;97339.13;12798863;23;20071;-63
2022/08/07 16:31:12;;;;;;;1.67;0.50;;;;;;;20.08;46.28;97343.56;12798792;23;20021;-58
2022/08/07 16:36:56;;;;;;;0.90;0.70;;;;;;;20.06;46.25;97343.88;12863522;23;20016;-57
2022/08/07 16:42:40;;;;;;;1.00;0.60;;;;;;;20.06;45.95;97332.25;12860771;23;20017;-60
2022/08/07 16:48:17;;;;;;;0.70;0.47;;;;;;;20.05;45.95;97330.66;12860330;23;20460;-60
2022/08/07 16:53:55;;;;;;;0.95;0.60;;;;;;;20.02;45.05;97331.31;12860777;23;20016;-61
2022/08/07 16:59:22;;;;;;;1.50;0.60;;;;;;;20.04;46.11;97337.19;12858317;23;20017;-62
2022/08/07 17:05:08;;;;;;;1.75;0.57;;;;;;;20.05;45.84;97339.59;12837457;23;20460;-61
2022/08/07 17:10:43;;;;;;;0.90;0.60;;;;;;;20.04;45.54;97339.91;12860698;23;20408;-61
2022/08/07 17:16:25;;;;;;;1.88;0.60;;;;;;;20.05;45.68;97338.75;12858050;23;20016;-62
2022/08/07 17:21:48;;;;;;;1.13;0.50;;;;;;;20.06;45.94;97332.25;12860538;23;20017;-62
2022/08/07 17:27:16;;;;;;;1.63;0.60;;;;;;;20.06;45.91;97338.47;12862709;23;20021;-62
2022/08/07 17:32:42;;;;;;;3.05;0.70;;;;;;;20.06;45.76;97343.09;12884519;23;20324;-61
2022/08/07 17:38:16;;;;;;;2.75;0.80;;;;;;;20.05;45.93;97345.00;12884301;23;20498;-62
2022/08/07 17:43:39;;;;;;;1.65;0.70;;;;;;;20.06;46.54;97345.78;12862993;23;20119;-61
2022/08/07 17:49:28;;;;;;;2.47;0.80;;;;;;;20.07;45.88;97350.06;12862746;23;20484;-62
2022/08/07 17:54:51;;;;;;;1.42;0.90;;;;;;;20.07;46.28;97347.38;12853162;23;20032;-62
2022/08/07 18:00:16;;;;;;;1.45;0.57;;;;;;;20.06;45.82;97345.78;12883660;23;20019;-62
2022/08/07 18:05:42;;;;;;;2.00;0.70;;;;;;;20.04;45.92;97345.31;12862559;23;20518;-62
2022/08/07 18:11:18;;;;;;;3.08;0.63;;;;;;;20.03;45.59;97346.41;12863304;23;20139;-62
2022/08/07 18:16:43;;;;;;;3.13;0.50;;;;;;;20.02;45.63;97356.44;12883301;23;20522;-61
2022/08/07 18:22:20;;;;;;;1.75;0.60;;;;;;;20.02;45.29;97361.03;12862931;23;20028;-62
2022/08/07 18:27:52;;;;;;;1.17;0.70;;;;;;;20.01;45.10;97359.44;12862443;23;20095;-63
2022/08/07 18:33:42;;;;;;;1.73;0.50;;;;;;;20.01;45.60;97376.47;12862462;23;20023;-63
2022/08/07 18:39:06;;;;;;;0.90;0.63;;;;;;;20.00;46.28;97363.28;12840292;23;20021;-63
2022/08/07 18:44:38;;;;;;;0.90;0.60;;;;;;;19.98;46.46;97371.69;12861906;23;20441;-63
2022/08/07 18:50:23;;;;;;;3.20;0.40;;;;;;;19.99;46.42;97377.88;12840441;23;20099;-63
2022/08/07 18:56:07;;;;;;;0.85;0.65;;;;;;;19.96;46.33;97379.31;12862747;23;20028;-63
2022/08/07 19:01:36;;;;;;;3.10;0.70;;;;;;;19.95;46.80;97383.94;12839829;23;20376;-62
2022/08/07 19:07:01;;;;;;;3.10;0.80;;;;;;;19.93;47.05;97378.03;12862176;23;20021;-60
2022/08/07 19:12:38;;;;;;;2.65;0.80;;;;;;;19.91;46.88;97388.34;12840088;23;20115;-62
2022/08/07 19:18:21;;;;;;;1.17;0.82;;;;;;;19.90;47.25;97400.28;12862013;23;20021;-62
2022/08/07 19:23:44;;;;;;;3.10;1.10;;;;;;;19.88;46.75;97409.84;12861654;23;20051;-62
2022/08/07 19:29:05;;;;;;;4.35;1.30;;;;;;;19.82;46.79;97406.47;12859455;23;20013;-62
2022/08/07 19:34:27;;;;;;;2.60;1.05;;;;;;;19.78;45.98;97410.91;12881857;23;20027;-61
2022/08/07 19:39:52;;;;;;;3.03;1.52;;;;;;;19.73;46.67;97403.69;12881475;23;20063;-62
2022/08/07 19:45:17;;;;;;;2.08;1.40;;;;;;;19.69;46.60;97413.50;12839249;23;20063;-62
2022/08/07 19:50:39;;;;;;;2.50;1.20;;;;;;;19.64;46.50;97408.25;12861545;23;20024;-61
2022/08/07 19:55:58;;;;;;;2.67;1.25;;;;;;;19.62;46.49;97413.16;12839302;23;20028;-61
2022/08/07 20:01:18;;;;;;;2.33;1.33;;;;;;;19.60;46.47;97414.56;12861373;23;20016;-60
2022/08/07 20:06:37;;;;;;;2.03;1.10;;;;;;;19.58;46.37;97416.78;12861714;23;20025;-62
2022/08/07 20:11:57;;;;;;;16.92;2.47;;;;;;;19.56;46.00;97419.78;12861231;23;20039;-62
2022/08/07 20:17:18;;;;;;;2.75;1.00;;;;;;;19.52;46.15;97419.63;12859658;23;20052;-62
2022/08/07 20:22:43;;;;;;;1.77;1.17;;;;;;;19.55;47.07;97408.19;12859277;23;20078;-60
2022/08/07 20:28:05;;;;;;;5.25;1.17;;;;;;;19.63;47.62;97417.44;12860106;23;20029;-62
2022/08/07 20:33:27;;;;;;;4.32;1.17;;;;;;;19.69;47.89;97420.81;12860679;23;20024;-62
2022/08/07 20:38:53;;;;;;;3.22;1.58;;;;;;;19.72;48.00;97418.34;12858899;23;20418;-62
2022/08/07 20:44:12;;;;;;;4.75;2.75;;;;;;;19.75;48.29;97425.03;12860931;23;20024;-62
2022/08/07 20:49:40;;;;;;;3.92;2.00;;;;;;;19.77;48.83;97422.00;12880832;23;20012;-60
2022/08/07 20:55:04;;;;;;;4.93;2.00;;;;;;;19.78;49.13;97427.13;12860085;23;20028;-62
2022/08/07 21:00:30;;;;;;;2.78;1.40;;;;;;;19.80;49.50;97429.50;12840510;23;20021;-62
2022/08/07 21:05:54;;;;;;;3.03;1.55;;;;;;;19.81;49.84;97429.19;12842375;23;20082;-61
2022/08/07 21:11:16;;;;;;;3.22;1.40;;;;;;;19.82;49.97;97428.09;12864480;23;20016;-62
2022/08/07 21:16:47;;;;;;;2.40;1.13;;;;;;;19.83;50.13;97435.06;12864271;23;20096;-62
2022/08/07 21:22:09;;;;;;;3.28;2.00;;;;;;;19.83;50.07;97432.38;12884296;23;20467;-62
2022/08/07 21:27:50;;;;;;;1.92;1.33;;;;;;;19.84;50.18;97442.09;12841478;23;20076;-61
2022/08/07 21:33:14;;;;;;;3.13;1.33;;;;;;;19.84;50.30;97433.97;12863494;23;20468;-62
2022/08/07 21:38:48;;;;;;;2.17;1.10;;;;;;;19.84;50.18;97439.41;12842106;23;20075;-61
2022/08/07 21:44:28;;;;;;;1.90;1.35;;;;;;;19.84;50.26;97436.69;12841832;23;20344;-62
2022/08/07 21:50:01;;;;;;;2.13;1.15;;;;;;;19.84;50.30;97436.69;12883983;23;20017;-61
2022/08/07 21:55:34;;;;;;;1.38;0.90;;;;;;;19.85;50.33;97442.88;12861361;23;20360;-62
2022/08/07 22:00:55;;;;;;;1.88;1.23;;;;;;;19.84;50.33;97442.09;12863997;23;20032;-62
2022/08/07 22:06:20;;;;;;;1.23;0.95;;;;;;;19.86;50.49;97453.41;12840195;23;20491;-63
2022/08/07 22:11:44;;;;;;;1.73;1.10;;;;;;;19.86;50.29;97444.50;12883369;23;20028;-62
2022/08/07 22:17:06;;;;;;;1.42;1.00;;;;;;;19.86;50.33;97445.28;12863311;23;20020;-62
2022/08/07 22:22:33;;;;;;;1.15;0.98;;;;;;;19.86;50.50;97433.69;12840622;23;20043;-62
2022/08/07 22:28:04;;;;;;;1.30;0.83;;;;;;;19.85;50.52;97435.56;12863085;23;20024;-62
2022/08/07 22:33:32;;;;;;;2.50;1.00;;;;;;;19.86;50.54;97445.28;12840453;23;20017;-62
2022/08/07 22:38:55;;;;;;;2.08;0.88;;;;;;;19.87;50.53;97452.28;12840285;23;20344;-62
2022/08/07 22:44:19;;;;;;;3.40;1.05;;;;;;;19.87;50.58;97446.06;12840256;23;20021;-62
2022/08/07 22:50:05;;;;;;;1.58;1.00;;;;;;;19.85;50.46;97446.38;12840426;23;20021;-62
2022/08/07 22:55:40;;;;;;;1.65;0.90;;;;;;;19.86;50.66;97453.41;12840343;23;20017;-62
2022/08/07 23:01:24;;;;;;;1.00;0.80;;;;;;;19.86;50.63;97447.19;12862582;23;20055;-62
2022/08/07 23:06:48;;;;;;;1.58;1.00;;;;;;;19.86;50.57;97453.41;12862364;23;20031;-62
2022/08/07 23:12:16;;;;;;;1.92;0.88;;;;;;;19.86;50.69;97456.09;12862401;23;20337;-62
2022/08/07 23:17:55;;;;;;;1.33;0.95;;;;;;;19.86;50.64;97455.31;12862276;23;20028;-63
2022/08/07 23:23:55;;;;;;;1.23;0.80;;;;;;;19.87;50.55;97462.31;12839105;23;20021;-62
2022/08/07 23:29:39;;;;;;;1.00;0.80;;;;;;;19.86;50.49;97458.81;12819115;23;20028;-62
2022/08/07 23:35:15;;;;;;;1.05;0.80;;;;;;;19.86;50.57;97458.81;12861154;23;20024;-62
2022/08/07 23:41:15;;;;;;;0.73;0.73;;;;;;;19.86;50.58;97456.09;12838534;23;20040;-62
2022/08/07 23:46:53;;;;;;;1.20;0.93;;;;;;;19.86;50.56;97458.00;12839437;23;20029;-61
2022/08/07 23:52:45;;;;;;;1.20;0.82;;;;;;;19.86;50.54;97461.50;12861243;23;20043;-62
2022/08/07 23:58:11;;;;;;;1.55;1.02;;;;;;;19.87;50.61;97457.69;12839249;23;20021;-62
